Lamoni, IA

6:48 PM CST on February 05, 2016 (GMT -0600)
Lamoni Municipal | | Change Station
CLOSE
Current Station
Airport
Location: Lamoni,
Elevation: 1132 ft
Nearby Weather Stations

Elev 1132 ft 40.63 °N, 93.90 °W | Updated 15 minutes ago

Light Snow
Light Snow
30 °F
Feels Like 23 °F
N
7
Wind Variable Wind from South

Today
High -- | Low -- °F
--% Chance of Precip.
Yesterday
High -- | Low -- °F
Precip. -- in
Pressure 30.28 in
Visibility 4.0 miles
Clouds Mostly Cloudy 2900 ft
Overcast 3800 ft
Windchill 23 °F
Dew Point 24 °F
Humidity 79%
Rainfall 0.00 in
Snow Depth Not available.
7:21 AM 5:37 PM
Waning Crescent, 8% visible
SPECI KLWD 060033Z AUTO 17006KT 4SM -SN BKN029 OVC038 M01/M04 A3028 RMK AO2 SNB25 P0000 T10111044
Pressure 30.28 in
Visibility 4.0 miles
Clouds Mostly Cloudy 2900 ft
Overcast 3800 ft
Windchill 23 °F
Dew Point 24 °F
Humidity 79%
Rainfall 0.00 in
Snow Depth Not available.
7:21 AM 5:37 PM
Waning Crescent, 8% visible
SPECI KLWD 060033Z AUTO 17006KT 4SM -SN BKN029 OVC038 M01/M04 A3028 RMK AO2 SNB25 P0000 T10111044

10-Day Weather Forecast

Almanac

Astronomy

Feb. 05, 2016 Rise Set
Actual Time
Civil Twilight
Nautical Twilight
Astronomical Twilight
Moon
Length of Visible Light
Length of Day
Tomorrow will be .
, % of the Moon is Illuminated

Today's Extremes

State Highs State Lows

Community

WunderPhotos

Upload Photos

1,890,900 photos uploaded!

WunderBlog® & News

Nearby

Air Quality

  Air Quality AQ Index Pollutant
Not available.

Snow Depth

Station Depth Elevation

Earthquake Activity

City Distance Mag. Time & Date
Minimum magnitude displayed is 2.5.

Coastal Water Temperatures

Place Temperature

Stations

Nearby Weather Stations

Station Location Temp. Windchill Dew Point Humidity Wind Precip. Elev Updated Type
                   

Watches & Warnings

There are currently no watches in effect.